• Join FlightAware (Why Join?)
  • Login
  • US Flag 
Trick or treat! (Boo!!) 
01:35AM EDT


 

Airport Tracker/Info


-or-


 

Live Flight TrackerFlight Track Log ✈ ASQ5356 ✈ 19-Jul-2013 ✈ KATL - KPHF

Flight Track Log - Related Links

Times and Time Zones

All times are in EDT time to prevent confusion due to time zone crossing. See the ASQ5356 flight status page for this flight to view local times or setup timezone preferences in your user account.

Time Position Orientation Groundspeed Altitude Reporting Facility
EDT Latitude Longitude Course Direction KTS MPH feet Rate Location/Type
12:02PM 33.6333 -84.4833 101° East 179 206 2,400  Level Atlanta TRACON
12:03PM 33.6053 -84.5450 241° Southwest 402 463 3,500 1,800 Climbing Atlanta Center
12:04PM 33.5447 -84.5922 213° Southwest 318 366 5,900 2,400 Climbing Atlanta Center
12:05PM 33.4694 -84.5717 167° South 288 331 8,300 2,220 Climbing Atlanta Center
12:06PM 33.4575 -84.4769 99° East 273 314 10,400 1,560 Climbing Atlanta Center
12:07PM 33.6922 -83.8858 101° East  Level FlightAware Approximate
12:07PM 33.4556 -84.3725 91° East 286 329 11,500  Level Atlanta Center
12:08PM 33.4642 -84.2581 85° East 333 383 12,600 1,440 Climbing Atlanta Center
12:09PM 33.5103 -84.1508 63° Northeast 345 397 14,400 1,500 Climbing Atlanta Center
12:10PM 33.5542 -84.0414 64° Northeast 350 403 15,700 1,200 Climbing Atlanta Center
12:11PM 33.5958 -83.9342 65° Northeast 355 409 16,800 1,020 Climbing Atlanta Center
12:12PM 33.6228 -83.8142 75° East 366 421 17,800 780 Climbing Atlanta Center
12:13PM 33.6497 -83.6794 76° East 371 427 18,400 660 Climbing Atlanta Center
12:14PM 33.6889 -83.5594 69° East 376 433 19,200 780 Climbing Atlanta Center
12:16PM 33.7881 -83.3239 63° Northeast 380 437 20,800 720 Climbing Atlanta Center
12:17PM 33.8331 -83.2086 65° Northeast 385 443 21,500 660 Climbing Atlanta Center
12:18PM 33.8783 -83.0856 66° East 390 449 22,200 600 Climbing Atlanta Center
12:19PM 33.9314 -82.9647 62° Northeast 395 455 22,700 480 Climbing Atlanta Center
12:20PM 33.9806 -82.8414 64° Northeast 400 460 23,200 480 Climbing Atlanta Center
12:21PM 34.0250 -82.7178 67° East 405 466 23,700 480 Climbing Atlanta Center
12:22PM 34.0758 -82.5942 64° Northeast 405 466 24,200 480 Climbing Atlanta Center
12:23PM 34.1203 -82.4806 65° Northeast 405 466 24,700 420 Climbing Atlanta Center
12:24PM 34.1731 -82.3567 63° Northeast 405 466 25,100 480 Climbing Atlanta Center
12:25PM 34.2214 -82.2300 65° Northeast 405 466 25,700 480 Climbing Atlanta Center
12:26PM 34.2758 -82.1056 62° Northeast 405 466 26,100 420 Climbing Atlanta Center
12:27PM 34.3344 -81.9861 59° Northeast 410 472 26,600 420 Climbing Atlanta Center
12:28PM 34.3969 -81.8636 58° Northeast 415 478 27,000 180 Climbing Atlanta Center
12:29PM 34.4572 -81.7439 59° Northeast 415 478 27,000  Level Atlanta Center
12:30PM 34.5197 -81.6236 58° Northeast 415 478 27,000  Level Atlanta Center
12:31PM 34.5778 -81.4983 61° Northeast 415 478 27,000  Level Atlanta Center
12:32PM 34.6417 -81.3700 59° Northeast 426 490 27,000  Level Atlanta Center
12:33PM 34.7039 -81.2469 58° Northeast 426 490 27,000  Level Atlanta Center
12:34PM 34.7656 -81.1208 59° Northeast 432 497 27,000  Level Atlanta Center
12:35PM 34.8253 -81.0000 59° Northeast 432 497 27,000  Level Atlanta Center
12:36PM 34.8886 -80.8683 60° Northeast 432 497 27,000  Level Atlanta Center
12:37PM 34.9558 -80.7292 59° Northeast 432 497 27,000  Level Atlanta Center
12:38PM 35.0192 -80.5997 59° Northeast 432 497 27,000  Level Atlanta Center
12:39PM 35.1211 -80.3811 60° Northeast 431 496 27,000  Level Washington Center
12:40PM 35.1825 -80.2553 59° Northeast 431 496 27,000  Level Washington Center
12:41PM 35.2461 -80.1242 59° Northeast 431 496 27,000  Level Washington Center
12:42PM 35.3069 -80.0003 59° Northeast 431 496 27,000  Level Washington Center
12:43PM 35.3681 -79.8686 60° Northeast 426 490 27,000  Level Washington Center
12:44PM 35.4086 -79.7281 70° East 431 496 27,000  Level Washington Center
12:45PM 35.4489 -79.5875 71° East 431 496 27,000  Level Washington Center
12:46PM 35.4889 -79.4439 71° East 437 503 27,000  Level Washington Center
12:47PM 35.5286 -79.3158 69° East 442 509 27,000  Level Washington Center
12:48PM 35.5703 -79.1747 70° East 437 503 27,000  Level Washington Center
12:49PM 35.6125 -79.0181 72° East 437 503 27,000  Level Washington Center
12:50PM 35.6542 -78.8769 70° East 437 503 27,000  Level Washington Center
12:51PM 35.6975 -78.7353 69° East 437 503 27,000  Level Washington Center
12:52PM 35.7367 -78.5911 71° East 437 503 27,000  Level Washington Center
12:53PM 35.7778 -78.4442 71° East 437 503 27,000 -300 Level Washington Center
12:54PM 35.8144 -78.3072 72° East 429 494 26,500 -540 Descending Washington Center
12:55PM 35.8483 -78.1853 71° East 406 467 26,000 -300 Descending Washington Center
12:56PM 35.8803 -78.0633 72° East 377 434 26,000  Level Washington Center
12:57PM 35.9161 -77.9414 70° East 377 434 26,000 -120 Level Washington Center
12:58PM 35.9497 -77.8167 72° East 372 428 25,800 -1,020 Descending Washington Center
12:59PM 35.9853 -77.6944 70° East 372 428 24,000 -1,800 Descending Washington Center
01:00PM 36.0350 -77.5878 60° Northeast 372 428 22,200 -1,560 Descending Washington Center
01:01PM 36.0869 -77.4811 59° Northeast 361 415 21,000 -1,200 Descending Washington Center
01:02PM 36.1408 -77.3692 59° Northeast 361 415 19,900 -1,320 Descending Washington Center
01:03PM 36.1878 -77.2853 55° Northeast 408 470 18,700 -1,380 Descending Washington Center
01:04PM 36.2978 -77.1950 33° Northeast 381 438 17,100 -1,500 Descending Washington Center
01:05PM 36.4072 -77.1044 34° Northeast 418 481 15,400 -1,500 Descending Washington Center
01:06PM 36.4917 -77.0336 34° Northeast 418 481 14,200 -1,380 Descending Washington Center
01:07PM 36.5803 -76.9550 35° Northeast 404 465 12,700 -1,500 Descending Washington Center
01:08PM 36.6497 -76.8889 37° Northeast 361 415 11,200 -1,740 Descending Washington Center
01:09PM 36.7069 -76.7967 52° Northeast 312 359 9,300 -1,860 Descending Washington Center
01:10PM 36.7517 -76.7144 56° Northeast 295 339 7,600 -1,620 Descending Washington Center
01:11PM 36.8169 -76.6506 38° Northeast 290 334 6,100 -1,440 Descending Washington Center
01:12PM 36.8800 -76.5967 34° Northeast 279 321 4,800 -1,380 Descending Washington Center